sensor_id;sensor_type;location;lat;lon;timestamp;P1;durP1;ratioP1;P2;durP2;ratioP2
13083;SDS011;6608;48.790;9.198;2024-02-15T00:01:02;135.23;;;59.90;;
13083;SDS011;6608;48.790;9.198;2024-02-15T00:03:30;132.53;;;59.73;;
13083;SDS011;6608;48.790;9.198;2024-02-15T00:05:58;134.23;;;58.87;;
13083;SDS011;6608;48.790;9.198;2024-02-15T00:08:25;133.17;;;59.73;;
13083;SDS011;6608;48.790;9.198;2024-02-15T00:10:51;134.50;;;60.37;;
13083;SDS011;6608;48.790;9.198;2024-02-15T00:13:18;134.53;;;59.53;;
13083;SDS011;6608;48.790;9.198;2024-02-15T00:15:45;133.97;;;59.57;;
13083;SDS011;6608;48.790;9.198;2024-02-15T00:18:14;131.97;;;59.23;;
13083;SDS011;6608;48.790;9.198;2024-02-15T00:20:42;131.17;;;59.10;;
13083;SDS011;6608;48.790;9.198;2024-02-15T00:23:09;132.90;;;59.60;;
13083;SDS011;6608;48.790;9.198;2024-02-15T00:25:35;134.97;;;60.13;;
13083;SDS011;6608;48.790;9.198;2024-02-15T00:28:02;129.73;;;58.43;;
13083;SDS011;6608;48.790;9.198;2024-02-15T00:30:29;132.70;;;59.53;;
13083;SDS011;6608;48.790;9.198;2024-02-15T00:32:56;135.43;;;59.53;;
13083;SDS011;6608;48.790;9.198;2024-02-15T00:35:23;131.03;;;58.90;;
13083;SDS011;6608;48.790;9.198;2024-02-15T00:37:51;131.37;;;59.13;;
13083;SDS011;6608;48.790;9.198;2024-02-15T00:40:17;133.90;;;59.27;;
13083;SDS011;6608;48.790;9.198;2024-02-15T00:42:43;128.53;;;56.77;;
13083;SDS011;6608;48.790;9.198;2024-02-15T00:45:10;134.77;;;59.63;;
13083;SDS011;6608;48.790;9.198;2024-02-15T00:47:36;132.23;;;59.10;;
13083;SDS011;6608;48.790;9.198;2024-02-15T00:50:03;132.93;;;59.60;;
13083;SDS011;6608;48.790;9.198;2024-02-15T00:52:30;134.93;;;59.40;;
13083;SDS011;6608;48.790;9.198;2024-02-15T00:54:58;133.13;;;59.27;;
13083;SDS011;6608;48.790;9.198;2024-02-15T00:57:24;135.07;;;59.17;;
13083;SDS011;6608;48.790;9.198;2024-02-15T00:59:51;132.97;;;59.50;;
13083;SDS011;6608;48.790;9.198;2024-02-15T01:02:18;132.20;;;58.63;;
13083;SDS011;6608;48.790;9.198;2024-02-15T01:04:44;133.13;;;59.23;;
13083;SDS011;6608;48.790;9.198;2024-02-15T01:07:11;133.20;;;59.00;;
13083;SDS011;6608;48.790;9.198;2024-02-15T01:09:38;133.57;;;59.50;;
13083;SDS011;6608;48.790;9.198;2024-02-15T01:12:06;133.13;;;59.50;;
13083;SDS011;6608;48.790;9.198;2024-02-15T01:14:33;129.43;;;58.20;;
13083;SDS011;6608;48.790;9.198;2024-02-15T01:16:59;131.50;;;58.80;;
13083;SDS011;6608;48.790;9.198;2024-02-15T01:19:26;137.27;;;60.00;;
13083;SDS011;6608;48.790;9.198;2024-02-15T01:21:52;132.63;;;59.03;;
13083;SDS011;6608;48.790;9.198;2024-02-15T01:24:19;133.43;;;59.07;;
13083;SDS011;6608;48.790;9.198;2024-02-15T01:26:46;133.77;;;59.57;;
13083;SDS011;6608;48.790;9.198;2024-02-15T01:29:14;131.07;;;58.80;;
13083;SDS011;6608;48.790;9.198;2024-02-15T01:31:41;133.00;;;59.40;;
13083;SDS011;6608;48.790;9.198;2024-02-15T01:34:08;135.20;;;60.13;;
13083;SDS011;6608;48.790;9.198;2024-02-15T01:36:35;134.80;;;59.20;;
13083;SDS011;6608;48.790;9.198;2024-02-15T01:39:01;135.57;;;60.10;;
13083;SDS011;6608;48.790;9.198;2024-02-15T01:41:28;131.37;;;59.23;;
13083;SDS011;6608;48.790;9.198;2024-02-15T01:43:54;132.57;;;59.17;;
13083;SDS011;6608;48.790;9.198;2024-02-15T01:46:22;129.53;;;58.43;;
13083;SDS011;6608;48.790;9.198;2024-02-15T01:48:48;132.70;;;59.43;;
13083;SDS011;6608;48.790;9.198;2024-02-15T01:51:15;133.57;;;58.97;;
13083;SDS011;6608;48.790;9.198;2024-02-15T01:53:42;135.17;;;59.50;;
13083;SDS011;6608;48.790;9.198;2024-02-15T01:56:08;129.83;;;58.40;;
13083;SDS011;6608;48.790;9.198;2024-02-15T01:58:35;130.90;;;58.90;;
13083;SDS011;6608;48.790;9.198;2024-02-15T02:01:01;131.83;;;59.20;;
13083;SDS011;6608;48.790;9.198;2024-02-15T02:03:29;131.87;;;58.83;;
13083;SDS011;6608;48.790;9.198;2024-02-15T02:05:56;133.17;;;59.57;;
13083;SDS011;6608;48.790;9.198;2024-02-15T02:08:23;131.53;;;59.17;;
13083;SDS011;6608;48.790;9.198;2024-02-15T02:10:50;130.17;;;58.53;;
13083;SDS011;6608;48.790;9.198;2024-02-15T02:13:16;133.23;;;59.13;;
13083;SDS011;6608;48.790;9.198;2024-02-15T02:15:43;131.90;;;59.03;;
13083;SDS011;6608;48.790;9.198;2024-02-15T02:18:10;133.90;;;59.43;;
13083;SDS011;6608;48.790;9.198;2024-02-15T02:20:38;133.07;;;59.43;;
13083;SDS011;6608;48.790;9.198;2024-02-15T02:23:06;131.97;;;58.90;;
13083;SDS011;6608;48.790;9.198;2024-02-15T02:25:34;130.70;;;58.57;;
13083;SDS011;6608;48.790;9.198;2024-02-15T02:28:01;130.07;;;58.67;;
13083;SDS011;6608;48.790;9.198;2024-02-15T02:30:27;131.97;;;58.93;;
13083;SDS011;6608;48.790;9.198;2024-02-15T02:32:54;129.83;;;57.90;;
13083;SDS011;6608;48.790;9.198;2024-02-15T02:35:21;131.37;;;58.57;;
13083;SDS011;6608;48.790;9.198;2024-02-15T02:37:48;130.40;;;58.27;;
13083;SDS011;6608;48.790;9.198;2024-02-15T02:40:14;130.77;;;58.77;;
13083;SDS011;6608;48.790;9.198;2024-02-15T02:42:51;129.43;;;58.00;;
13083;SDS011;6608;48.790;9.198;2024-02-15T02:45:18;131.90;;;59.40;;
13083;SDS011;6608;48.790;9.198;2024-02-15T02:47:47;129.20;;;58.07;;
13083;SDS011;6608;48.790;9.198;2024-02-15T02:50:13;130.63;;;58.77;;
13083;SDS011;6608;48.790;9.198;2024-02-15T02:52:40;129.77;;;58.50;;
13083;SDS011;6608;48.790;9.198;2024-02-15T02:55:07;129.30;;;58.23;;
13083;SDS011;6608;48.790;9.198;2024-02-15T02:57:34;130.60;;;58.40;;
13083;SDS011;6608;48.790;9.198;2024-02-15T03:00:04;135.30;;;59.20;;
13083;SDS011;6608;48.790;9.198;2024-02-15T03:02:33;130.13;;;58.40;;
13083;SDS011;6608;48.790;9.198;2024-02-15T03:05:00;128.27;;;58.00;;
13083;SDS011;6608;48.790;9.198;2024-02-15T03:07:27;130.37;;;58.60;;
13083;SDS011;6608;48.790;9.198;2024-02-15T03:09:53;130.17;;;58.10;;
13083;SDS011;6608;48.790;9.198;2024-02-15T03:12:19;130.43;;;57.97;;
13083;SDS011;6608;48.790;9.198;2024-02-15T03:14:46;130.03;;;58.70;;
13083;SDS011;6608;48.790;9.198;2024-02-15T03:17:14;131.40;;;58.67;;
13083;SDS011;6608;48.790;9.198;2024-02-15T03:19:41;129.23;;;58.33;;
13083;SDS011;6608;48.790;9.198;2024-02-15T03:22:07;130.13;;;58.57;;
13083;SDS011;6608;48.790;9.198;2024-02-15T03:24:33;128.00;;;58.03;;
13083;SDS011;6608;48.790;9.198;2024-02-15T03:27:00;131.93;;;58.37;;
13083;SDS011;6608;48.790;9.198;2024-02-15T03:29:26;129.00;;;58.13;;
13083;SDS011;6608;48.790;9.198;2024-02-15T03:31:54;128.57;;;58.40;;
13083;SDS011;6608;48.790;9.198;2024-02-15T03:34:22;131.13;;;58.63;;
13083;SDS011;6608;48.790;9.198;2024-02-15T03:36:49;130.30;;;58.67;;
13083;SDS011;6608;48.790;9.198;2024-02-15T03:39:18;126.97;;;57.67;;
13083;SDS011;6608;48.790;9.198;2024-02-15T03:41:45;130.07;;;57.70;;
13083;SDS011;6608;48.790;9.198;2024-02-15T03:44:11;130.17;;;58.63;;
13083;SDS011;6608;48.790;9.198;2024-02-15T03:46:38;130.30;;;57.57;;
13083;SDS011;6608;48.790;9.198;2024-02-15T03:49:04;130.33;;;58.37;;
13083;SDS011;6608;48.790;9.198;2024-02-15T03:51:34;130.17;;;58.77;;
13083;SDS011;6608;48.790;9.198;2024-02-15T03:54:00;128.60;;;57.63;;
13083;SDS011;6608;48.790;9.198;2024-02-15T03:56:29;130.70;;;59.00;;
13083;SDS011;6608;48.790;9.198;2024-02-15T03:58:57;130.87;;;58.73;;
13083;SDS011;6608;48.790;9.198;2024-02-15T04:01:24;130.10;;;58.63;;
13083;SDS011;6608;48.790;9.198;2024-02-15T04:03:52;129.50;;;58.80;;
13083;SDS011;6608;48.790;9.198;2024-02-15T04:06:18;130.40;;;58.10;;
13083;SDS011;6608;48.790;9.198;2024-02-15T04:08:46;127.80;;;58.23;;
13083;SDS011;6608;48.790;9.198;2024-02-15T04:11:15;130.60;;;58.17;;
13083;SDS011;6608;48.790;9.198;2024-02-15T04:13:41;128.73;;;57.17;;
13083;SDS011;6608;48.790;9.198;2024-02-15T04:16:08;130.50;;;58.60;;
13083;SDS011;6608;48.790;9.198;2024-02-15T04:18:35;129.07;;;57.70;;
13083;SDS011;6608;48.790;9.198;2024-02-15T04:21:03;131.13;;;58.37;;
13083;SDS011;6608;48.790;9.198;2024-02-15T04:23:31;126.10;;;57.20;;
13083;SDS011;6608;48.790;9.198;2024-02-15T04:25:59;126.77;;;57.50;;
13083;SDS011;6608;48.790;9.198;2024-02-15T04:28:25;125.97;;;57.47;;
13083;SDS011;6608;48.790;9.198;2024-02-15T04:30:52;128.40;;;58.10;;
13083;SDS011;6608;48.790;9.198;2024-02-15T04:33:18;128.47;;;58.40;;
13083;SDS011;6608;48.790;9.198;2024-02-15T04:35:45;128.90;;;58.57;;
13083;SDS011;6608;48.790;9.198;2024-02-15T04:38:11;128.37;;;58.10;;
13083;SDS011;6608;48.790;9.198;2024-02-15T04:40:37;128.97;;;57.57;;
13083;SDS011;6608;48.790;9.198;2024-02-15T04:43:06;127.73;;;58.20;;
13083;SDS011;6608;48.790;9.198;2024-02-15T04:45:33;129.23;;;58.93;;
13083;SDS011;6608;48.790;9.198;2024-02-15T04:48:00;130.47;;;58.17;;
13083;SDS011;6608;48.790;9.198;2024-02-15T04:50:28;127.47;;;57.87;;
13083;SDS011;6608;48.790;9.198;2024-02-15T04:52:54;128.83;;;58.17;;
13083;SDS011;6608;48.790;9.198;2024-02-15T04:55:21;127.17;;;58.10;;
13083;SDS011;6608;48.790;9.198;2024-02-15T04:57:47;127.67;;;57.83;;
13083;SDS011;6608;48.790;9.198;2024-02-15T05:00:16;126.90;;;57.50;;
13083;SDS011;6608;48.790;9.198;2024-02-15T05:02:45;127.67;;;57.13;;
13083;SDS011;6608;48.790;9.198;2024-02-15T05:05:12;130.13;;;57.63;;
13083;SDS011;6608;48.790;9.198;2024-02-15T05:07:39;126.97;;;57.53;;
13083;SDS011;6608;48.790;9.198;2024-02-15T05:10:06;125.10;;;57.13;;
13083;SDS011;6608;48.790;9.198;2024-02-15T05:12:33;128.53;;;57.10;;
13083;SDS011;6608;48.790;9.198;2024-02-15T05:15:00;128.67;;;58.53;;
13083;SDS011;6608;48.790;9.198;2024-02-15T05:17:28;128.37;;;57.87;;
13083;SDS011;6608;48.790;9.198;2024-02-15T05:19:54;130.83;;;59.10;;
13083;SDS011;6608;48.790;9.198;2024-02-15T05:22:24;129.13;;;59.13;;
13083;SDS011;6608;48.790;9.198;2024-02-15T05:24:52;129.33;;;58.53;;
13083;SDS011;6608;48.790;9.198;2024-02-15T05:27:19;127.10;;;58.20;;
13083;SDS011;6608;48.790;9.198;2024-02-15T05:29:45;128.67;;;58.67;;
13083;SDS011;6608;48.790;9.198;2024-02-15T05:32:12;129.60;;;59.40;;
13083;SDS011;6608;48.790;9.198;2024-02-15T05:34:43;128.13;;;58.60;;
13083;SDS011;6608;48.790;9.198;2024-02-15T05:37:10;130.27;;;58.60;;
13083;SDS011;6608;48.790;9.198;2024-02-15T05:39:37;129.47;;;58.90;;
13083;SDS011;6608;48.790;9.198;2024-02-15T05:42:05;128.87;;;58.40;;
13083;SDS011;6608;48.790;9.198;2024-02-15T05:44:31;129.13;;;58.77;;
13083;SDS011;6608;48.790;9.198;2024-02-15T05:46:57;127.30;;;58.33;;
13083;SDS011;6608;48.790;9.198;2024-02-15T05:49:24;128.00;;;58.53;;
13083;SDS011;6608;48.790;9.198;2024-02-15T05:51:52;127.60;;;58.27;;
13083;SDS011;6608;48.790;9.198;2024-02-15T05:54:19;130.13;;;58.77;;
13083;SDS011;6608;48.790;9.198;2024-02-15T05:56:47;126.70;;;58.13;;
13083;SDS011;6608;48.790;9.198;2024-02-15T05:59:16;127.20;;;58.20;;
13083;SDS011;6608;48.790;9.198;2024-02-15T06:01:45;126.47;;;57.90;;
13083;SDS011;6608;48.790;9.198;2024-02-15T06:04:13;133.17;;;59.00;;
13083;SDS011;6608;48.790;9.198;2024-02-15T06:06:39;131.60;;;59.17;;
13083;SDS011;6608;48.790;9.198;2024-02-15T06:09:07;135.30;;;59.07;;
13083;SDS011;6608;48.790;9.198;2024-02-15T06:11:34;130.53;;;58.23;;
13083;SDS011;6608;48.790;9.198;2024-02-15T06:14:02;132.63;;;58.53;;
13083;SDS011;6608;48.790;9.198;2024-02-15T06:16:28;127.53;;;58.07;;
13083;SDS011;6608;48.790;9.198;2024-02-15T06:18:55;129.60;;;58.40;;
13083;SDS011;6608;48.790;9.198;2024-02-15T06:21:21;128.50;;;58.43;;
13083;SDS011;6608;48.790;9.198;2024-02-15T06:23:48;127.93;;;58.77;;
13083;SDS011;6608;48.790;9.198;2024-02-15T06:26:16;127.07;;;58.13;;
13083;SDS011;6608;48.790;9.198;2024-02-15T06:28:44;131.07;;;59.00;;
13083;SDS011;6608;48.790;9.198;2024-02-15T06:31:28;128.57;;;58.63;;
13083;SDS011;6608;48.790;9.198;2024-02-15T06:34:12;129.27;;;58.53;;
13083;SDS011;6608;48.790;9.198;2024-02-15T06:36:57;129.90;;;59.00;;
13083;SDS011;6608;48.790;9.198;2024-02-15T06:39:41;130.20;;;59.47;;
13083;SDS011;6608;48.790;9.198;2024-02-15T06:42:09;126.67;;;57.63;;
13083;SDS011;6608;48.790;9.198;2024-02-15T06:44:36;128.93;;;59.27;;
13083;SDS011;6608;48.790;9.198;2024-02-15T06:47:03;131.53;;;59.80;;
13083;SDS011;6608;48.790;9.198;2024-02-15T06:49:31;130.23;;;59.23;;
13083;SDS011;6608;48.790;9.198;2024-02-15T06:51:58;128.83;;;59.13;;
13083;SDS011;6608;48.790;9.198;2024-02-15T06:54:27;128.97;;;59.23;;
13083;SDS011;6608;48.790;9.198;2024-02-15T06:56:53;128.10;;;58.80;;
13083;SDS011;6608;48.790;9.198;2024-02-15T06:59:21;126.37;;;57.50;;
13083;SDS011;6608;48.790;9.198;2024-02-15T07:01:48;131.60;;;58.70;;
13083;SDS011;6608;48.790;9.198;2024-02-15T07:04:14;129.77;;;59.17;;
13083;SDS011;6608;48.790;9.198;2024-02-15T07:06:41;131.93;;;60.57;;
13083;SDS011;6608;48.790;9.198;2024-02-15T07:09:10;130.40;;;59.77;;
13083;SDS011;6608;48.790;9.198;2024-02-15T07:11:36;132.60;;;60.77;;
13083;SDS011;6608;48.790;9.198;2024-02-15T07:14:03;129.20;;;59.50;;
13083;SDS011;6608;48.790;9.198;2024-02-15T07:16:33;136.60;;;62.63;;
13083;SDS011;6608;48.790;9.198;2024-02-15T07:19:00;135.57;;;59.27;;
13083;SDS011;6608;48.790;9.198;2024-02-15T07:21:26;129.93;;;59.67;;
13083;SDS011;6608;48.790;9.198;2024-02-15T07:23:53;129.87;;;58.70;;
13083;SDS011;6608;48.790;9.198;2024-02-15T07:26:20;127.93;;;57.87;;
13083;SDS011;6608;48.790;9.198;2024-02-15T07:28:49;140.00;;;59.70;;
13083;SDS011;6608;48.790;9.198;2024-02-15T07:31:17;134.87;;;60.87;;
13083;SDS011;6608;48.790;9.198;2024-02-15T07:33:45;131.63;;;60.30;;
13083;SDS011;6608;48.790;9.198;2024-02-15T07:36:11;139.17;;;61.63;;
13083;SDS011;6608;48.790;9.198;2024-02-15T07:38:38;133.90;;;61.03;;
13083;SDS011;6608;48.790;9.198;2024-02-15T07:41:05;134.60;;;60.63;;
13083;SDS011;6608;48.790;9.198;2024-02-15T07:43:31;135.73;;;60.60;;
13083;SDS011;6608;48.790;9.198;2024-02-15T07:45:58;132.70;;;60.43;;
13083;SDS011;6608;48.790;9.198;2024-02-15T07:48:24;139.27;;;60.63;;
13083;SDS011;6608;48.790;9.198;2024-02-15T07:50:53;131.83;;;59.70;;
13083;SDS011;6608;48.790;9.198;2024-02-15T07:53:20;130.73;;;59.80;;
13083;SDS011;6608;48.790;9.198;2024-02-15T07:55:47;134.83;;;61.10;;
13083;SDS011;6608;48.790;9.198;2024-02-15T07:58:15;141.93;;;63.43;;
13083;SDS011;6608;48.790;9.198;2024-02-15T08:00:43;133.00;;;60.53;;
13083;SDS011;6608;48.790;9.198;2024-02-15T08:03:10;132.00;;;60.23;;
13083;SDS011;6608;48.790;9.198;2024-02-15T08:05:36;136.30;;;62.00;;
13083;SDS011;6608;48.790;9.198;2024-02-15T08:08:04;134.47;;;60.30;;
13083;SDS011;6608;48.790;9.198;2024-02-15T08:10:31;138.37;;;62.73;;
13083;SDS011;6608;48.790;9.198;2024-02-15T08:12:58;132.47;;;60.53;;
13083;SDS011;6608;48.790;9.198;2024-02-15T08:15:25;134.90;;;61.07;;
13083;SDS011;6608;48.790;9.198;2024-02-15T08:17:52;134.67;;;61.10;;
13083;SDS011;6608;48.790;9.198;2024-02-15T08:20:20;138.43;;;63.13;;
13083;SDS011;6608;48.790;9.198;2024-02-15T08:22:47;136.33;;;61.27;;
13083;SDS011;6608;48.790;9.198;2024-02-15T08:25:15;134.03;;;60.60;;
13083;SDS011;6608;48.790;9.198;2024-02-15T08:27:43;141.73;;;62.07;;
13083;SDS011;6608;48.790;9.198;2024-02-15T08:30:10;142.63;;;64.67;;
13083;SDS011;6608;48.790;9.198;2024-02-15T08:32:38;142.23;;;63.40;;
13083;SDS011;6608;48.790;9.198;2024-02-15T08:35:05;139.00;;;61.90;;
13083;SDS011;6608;48.790;9.198;2024-02-15T08:37:31;143.33;;;63.63;;
13083;SDS011;6608;48.790;9.198;2024-02-15T08:39:59;153.43;;;68.83;;
13083;SDS011;6608;48.790;9.198;2024-02-15T08:42:27;152.53;;;64.97;;
13083;SDS011;6608;48.790;9.198;2024-02-15T08:44:53;152.10;;;66.57;;
13083;SDS011;6608;48.790;9.198;2024-02-15T08:47:20;149.83;;;65.57;;
13083;SDS011;6608;48.790;9.198;2024-02-15T08:49:47;155.07;;;67.87;;
13083;SDS011;6608;48.790;9.198;2024-02-15T08:52:13;152.03;;;66.17;;
13083;SDS011;6608;48.790;9.198;2024-02-15T08:54:42;155.10;;;66.27;;
13083;SDS011;6608;48.790;9.198;2024-02-15T08:57:08;153.27;;;66.13;;
13083;SDS011;6608;48.790;9.198;2024-02-15T08:59:37;153.63;;;68.27;;
13083;SDS011;6608;48.790;9.198;2024-02-15T09:02:04;146.50;;;64.77;;
13083;SDS011;6608;48.790;9.198;2024-02-15T09:04:31;147.40;;;64.67;;
13083;SDS011;6608;48.790;9.198;2024-02-15T09:06:58;149.03;;;65.43;;
13083;SDS011;6608;48.790;9.198;2024-02-15T09:09:32;149.57;;;65.50;;
13083;SDS011;6608;48.790;9.198;2024-02-15T09:12:00;151.63;;;64.93;;
13083;SDS011;6608;48.790;9.198;2024-02-15T09:14:27;150.93;;;66.20;;
13083;SDS011;6608;48.790;9.198;2024-02-15T09:16:55;157.37;;;68.17;;
13083;SDS011;6608;48.790;9.198;2024-02-15T09:19:21;155.20;;;67.03;;
13083;SDS011;6608;48.790;9.198;2024-02-15T09:21:49;154.77;;;68.17;;
13083;SDS011;6608;48.790;9.198;2024-02-15T09:24:15;160.97;;;68.67;;
13083;SDS011;6608;48.790;9.198;2024-02-15T09:26:42;154.93;;;67.90;;
13083;SDS011;6608;48.790;9.198;2024-02-15T09:29:09;161.30;;;70.10;;
13083;SDS011;6608;48.790;9.198;2024-02-15T09:31:37;161.37;;;70.60;;
13083;SDS011;6608;48.790;9.198;2024-02-15T09:34:06;160.27;;;69.47;;
13083;SDS011;6608;48.790;9.198;2024-02-15T09:36:33;159.00;;;70.67;;
13083;SDS011;6608;48.790;9.198;2024-02-15T09:39:00;159.43;;;70.10;;
13083;SDS011;6608;48.790;9.198;2024-02-15T09:41:26;170.53;;;77.80;;
13083;SDS011;6608;48.790;9.198;2024-02-15T09:43:53;167.03;;;74.47;;
13083;SDS011;6608;48.790;9.198;2024-02-15T09:46:34;159.43;;;71.17;;
13083;SDS011;6608;48.790;9.198;2024-02-15T09:49:01;170.47;;;79.17;;
13083;SDS011;6608;48.790;9.198;2024-02-15T09:51:30;161.50;;;71.70;;
13083;SDS011;6608;48.790;9.198;2024-02-15T09:53:59;159.07;;;72.77;;
13083;SDS011;6608;48.790;9.198;2024-02-15T09:56:26;162.63;;;73.15;;
13083;SDS011;6608;48.790;9.198;2024-02-15T09:58:54;160.13;;;74.15;;
13083;SDS011;6608;48.790;9.198;2024-02-15T10:01:22;161.15;;;73.28;;
13083;SDS011;6608;48.790;9.198;2024-02-15T10:03:49;166.30;;;75.18;;
13083;SDS011;6608;48.790;9.198;2024-02-15T10:06:16;161.00;;;74.28;;
13083;SDS011;6608;48.790;9.198;2024-02-15T10:08:44;160.57;;;72.20;;
13083;SDS011;6608;48.790;9.198;2024-02-15T10:11:12;165.68;;;75.32;;
13083;SDS011;6608;48.790;9.198;2024-02-15T10:13:38;163.43;;;74.18;;
13083;SDS011;6608;48.790;9.198;2024-02-15T10:16:15;163.32;;;74.03;;
13083;SDS011;6608;48.790;9.198;2024-02-15T10:18:43;162.38;;;75.53;;
13083;SDS011;6608;48.790;9.198;2024-02-15T10:21:09;161.50;;;74.22;;
13083;SDS011;6608;48.790;9.198;2024-02-15T10:23:36;161.95;;;75.22;;
13083;SDS011;6608;48.790;9.198;2024-02-15T10:26:11;161.85;;;75.15;;
13083;SDS011;6608;48.790;9.198;2024-02-15T10:28:44;160.52;;;74.57;;
13083;SDS011;6608;48.790;9.198;2024-02-15T10:31:14;160.23;;;75.20;;
13083;SDS011;6608;48.790;9.198;2024-02-15T10:33:40;160.98;;;76.60;;
13083;SDS011;6608;48.790;9.198;2024-02-15T10:36:07;163.02;;;75.50;;
13083;SDS011;6608;48.790;9.198;2024-02-15T10:38:34;157.80;;;74.05;;
13083;SDS011;6608;48.790;9.198;2024-02-15T10:41:08;163.95;;;76.03;;
13083;SDS011;6608;48.790;9.198;2024-02-15T10:43:37;157.95;;;74.55;;
13083;SDS011;6608;48.790;9.198;2024-02-15T10:46:03;158.73;;;74.50;;
13083;SDS011;6608;48.790;9.198;2024-02-15T10:48:34;162.80;;;74.38;;
13083;SDS011;6608;48.790;9.198;2024-02-15T10:51:01;158.65;;;74.60;;
13083;SDS011;6608;48.790;9.198;2024-02-15T10:53:31;157.48;;;73.13;;
13083;SDS011;6608;48.790;9.198;2024-02-15T10:56:00;157.27;;;73.60;;
13083;SDS011;6608;48.790;9.198;2024-02-15T10:58:31;156.43;;;73.60;;
13083;SDS011;6608;48.790;9.198;2024-02-15T11:01:01;156.13;;;73.72;;
13083;SDS011;6608;48.790;9.198;2024-02-15T11:03:29;159.13;;;74.82;;
13083;SDS011;6608;48.790;9.198;2024-02-15T11:05:59;155.95;;;73.82;;
13083;SDS011;6608;48.790;9.198;2024-02-15T11:08:26;157.98;;;74.20;;
13083;SDS011;6608;48.790;9.198;2024-02-15T11:10:53;157.98;;;73.50;;
13083;SDS011;6608;48.790;9.198;2024-02-15T11:13:23;160.75;;;73.35;;
13083;SDS011;6608;48.790;9.198;2024-02-15T11:15:50;159.88;;;74.05;;
13083;SDS011;6608;48.790;9.198;2024-02-15T11:21:05;160.77;;;74.50;;
13083;SDS011;6608;48.790;9.198;2024-02-15T11:23:31;161.23;;;73.60;;
13083;SDS011;6608;48.790;9.198;2024-02-15T11:25:58;158.93;;;72.73;;
13083;SDS011;6608;48.790;9.198;2024-02-15T11:28:42;159.70;;;72.47;;
13083;SDS011;6608;48.790;9.198;2024-02-15T11:33:58;157.48;;;73.13;;
13083;SDS011;6608;48.790;9.198;2024-02-15T11:36:31;154.52;;;70.40;;
13083;SDS011;6608;48.790;9.198;2024-02-15T11:38:57;157.82;;;73.70;;
13083;SDS011;6608;48.790;9.198;2024-02-15T11:41:24;162.07;;;73.43;;
13083;SDS011;6608;48.790;9.198;2024-02-15T11:43:51;158.05;;;72.85;;
13083;SDS011;6608;48.790;9.198;2024-02-15T11:46:22;159.50;;;72.23;;
13083;SDS011;6608;48.790;9.198;2024-02-15T11:48:51;161.53;;;73.23;;
13083;SDS011;6608;48.790;9.198;2024-02-15T11:51:27;158.17;;;72.10;;
13083;SDS011;6608;48.790;9.198;2024-02-15T11:54:04;158.63;;;73.03;;
13083;SDS011;6608;48.790;9.198;2024-02-15T11:59:39;162.17;;;73.47;;
13083;SDS011;6608;48.790;9.198;2024-02-15T12:02:18;160.03;;;72.40;;
13083;SDS011;6608;48.790;9.198;2024-02-15T12:05:03;160.47;;;73.57;;
13083;SDS011;6608;48.790;9.198;2024-02-15T12:07:47;160.77;;;73.30;;
13083;SDS011;6608;48.790;9.198;2024-02-15T12:10:33;164.45;;;75.15;;
13083;SDS011;6608;48.790;9.198;2024-02-15T12:13:31;168.35;;;78.97;;
13083;SDS011;6608;48.790;9.198;2024-02-15T12:16:15;158.63;;;72.63;;
13083;SDS011;6608;48.790;9.198;2024-02-15T12:18:59;161.63;;;72.37;;
13083;SDS011;6608;48.790;9.198;2024-02-15T12:21:25;166.87;;;72.20;;
13083;SDS011;6608;48.790;9.198;2024-02-15T12:23:53;158.33;;;70.10;;
13083;SDS011;6608;48.790;9.198;2024-02-15T12:26:22;163.70;;;72.13;;
13083;SDS011;6608;48.790;9.198;2024-02-15T12:28:52;159.17;;;70.70;;
13083;SDS011;6608;48.790;9.198;2024-02-15T12:31:19;158.93;;;70.70;;
13083;SDS011;6608;48.790;9.198;2024-02-15T12:33:46;162.80;;;70.97;;
13083;SDS011;6608;48.790;9.198;2024-02-15T12:36:14;159.37;;;71.20;;
13083;SDS011;6608;48.790;9.198;2024-02-15T12:38:42;164.00;;;72.60;;
13083;SDS011;6608;48.790;9.198;2024-02-15T12:41:19;158.50;;;67.97;;
13083;SDS011;6608;48.790;9.198;2024-02-15T12:43:47;163.90;;;71.63;;
13083;SDS011;6608;48.790;9.198;2024-02-15T12:46:18;161.80;;;70.60;;
13083;SDS011;6608;48.790;9.198;2024-02-15T12:48:44;211.97;;;98.63;;
13083;SDS011;6608;48.790;9.198;2024-02-15T12:51:14;162.83;;;70.77;;
13083;SDS011;6608;48.790;9.198;2024-02-15T12:53:41;161.67;;;69.20;;
13083;SDS011;6608;48.790;9.198;2024-02-15T12:56:08;161.87;;;69.10;;
13083;SDS011;6608;48.790;9.198;2024-02-15T12:58:34;162.03;;;69.73;;
13083;SDS011;6608;48.790;9.198;2024-02-15T13:01:02;161.03;;;69.27;;
13083;SDS011;6608;48.790;9.198;2024-02-15T13:03:29;160.37;;;69.03;;
13083;SDS011;6608;48.790;9.198;2024-02-15T13:05:56;161.27;;;68.93;;
13083;SDS011;6608;48.790;9.198;2024-02-15T13:08:22;160.50;;;68.07;;
13083;SDS011;6608;48.790;9.198;2024-02-15T13:10:49;163.23;;;69.33;;
13083;SDS011;6608;48.790;9.198;2024-02-15T13:13:16;161.33;;;67.40;;
13083;SDS011;6608;48.790;9.198;2024-02-15T13:15:43;163.33;;;70.13;;
13083;SDS011;6608;48.790;9.198;2024-02-15T13:18:11;164.13;;;70.83;;
13083;SDS011;6608;48.790;9.198;2024-02-15T13:20:38;163.83;;;70.27;;
13083;SDS011;6608;48.790;9.198;2024-02-15T13:23:06;162.60;;;68.87;;
13083;SDS011;6608;48.790;9.198;2024-02-15T13:25:34;163.50;;;69.23;;
13083;SDS011;6608;48.790;9.198;2024-02-15T13:28:01;159.47;;;68.60;;
13083;SDS011;6608;48.790;9.198;2024-02-15T13:30:29;158.20;;;68.20;;
13083;SDS011;6608;48.790;9.198;2024-02-15T13:32:55;159.30;;;67.50;;
13083;SDS011;6608;48.790;9.198;2024-02-15T13:35:24;164.20;;;70.63;;
13083;SDS011;6608;48.790;9.198;2024-02-15T13:37:50;160.87;;;69.00;;
13083;SDS011;6608;48.790;9.198;2024-02-15T13:40:19;161.83;;;69.57;;
13083;SDS011;6608;48.790;9.198;2024-02-15T13:42:48;163.77;;;69.33;;
13083;SDS011;6608;48.790;9.198;2024-02-15T13:45:17;162.53;;;68.33;;
13083;SDS011;6608;48.790;9.198;2024-02-15T13:47:44;159.83;;;68.70;;
13083;SDS011;6608;48.790;9.198;2024-02-15T13:50:12;165.10;;;71.15;;
13083;SDS011;6608;48.790;9.198;2024-02-15T13:52:41;159.73;;;68.97;;
13083;SDS011;6608;48.790;9.198;2024-02-15T13:55:08;161.90;;;69.67;;
13083;SDS011;6608;48.790;9.198;2024-02-15T13:57:36;159.30;;;67.97;;
13083;SDS011;6608;48.790;9.198;2024-02-15T14:00:03;159.20;;;68.17;;
13083;SDS011;6608;48.790;9.198;2024-02-15T14:02:31;159.23;;;68.23;;
13083;SDS011;6608;48.790;9.198;2024-02-15T14:04:57;160.30;;;68.93;;
13083;SDS011;6608;48.790;9.198;2024-02-15T14:07:23;163.67;;;72.10;;
13083;SDS011;6608;48.790;9.198;2024-02-15T14:09:51;160.70;;;68.30;;
13083;SDS011;6608;48.790;9.198;2024-02-15T14:12:18;162.07;;;70.77;;
13083;SDS011;6608;48.790;9.198;2024-02-15T14:14:44;160.07;;;69.37;;
13083;SDS011;6608;48.790;9.198;2024-02-15T14:17:11;164.57;;;72.30;;
13083;SDS011;6608;48.790;9.198;2024-02-15T14:19:38;162.23;;;68.07;;
13083;SDS011;6608;48.790;9.198;2024-02-15T14:22:05;158.30;;;67.90;;
13083;SDS011;6608;48.790;9.198;2024-02-15T14:24:34;161.67;;;68.77;;
13083;SDS011;6608;48.790;9.198;2024-02-15T14:27:03;156.47;;;66.57;;
13083;SDS011;6608;48.790;9.198;2024-02-15T14:29:29;160.57;;;68.17;;
13083;SDS011;6608;48.790;9.198;2024-02-15T14:31:58;165.83;;;70.13;;
13083;SDS011;6608;48.790;9.198;2024-02-15T14:34:42;161.37;;;68.47;;